Time;durP1;ratioP1;P1;durP2;ratioP2;P2;SDS_P1;SDS_P2;PMS_P1;PMS_P2;Temp;Humidity;BMP_temperature;BMP_pressure;BME280_temperature;BME280_humidity;BME280_pressure;Samples;Min_cycle;Max_cycle;Signal;HPM_P1;HPM_P2
2023/06/04 00:01:00;;;;;;;7.72;1.58;;;;;;;11.50;61.61;101090.81;5015440;28;20104;-49
2023/06/04 00:03:26;;;;;;;7.80;1.83;;;;;;;11.47;60.96;101081.28;5014954;28;20049;-51
2023/06/04 00:05:54;;;;;;;13.18;1.83;;;;;;;11.41;62.35;101089.88;5010719;28;20042;-48
2023/06/04 00:08:20;;;;;;;4.28;1.45;;;;;;;11.37;62.09;101089.81;5008706;28;20049;-48
2023/06/04 00:10:47;;;;;;;7.32;1.52;;;;;;;11.30;62.04;101094.94;5012582;28;20042;-49
2023/06/04 00:13:14;;;;;;;7.32;1.27;;;;;;;11.27;61.19;101089.72;5011286;28;20541;-50
2023/06/04 00:15:41;;;;;;;4.57;1.75;;;;;;;11.22;61.53;101101.78;5010317;28;20050;-49
2023/06/04 00:18:08;;;;;;;5.43;1.38;;;;;;;11.19;62.20;101099.13;5010592;28;20045;-49
2023/06/04 00:20:35;;;;;;;7.47;1.60;;;;;;;11.15;61.23;101097.38;5011831;28;20485;-47
2023/06/04 00:23:02;;;;;;;6.30;1.73;;;;;;;11.13;61.83;101101.66;5009996;28;20045;-49
2023/06/04 00:25:29;;;;;;;7.65;1.50;;;;;;;11.10;61.12;101101.59;5013463;28;20045;-49
2023/06/04 00:27:58;;;;;;;6.30;1.92;;;;;;;11.07;61.11;101097.25;5012801;28;20050;-50
2023/06/04 00:30:26;;;;;;;4.30;1.50;;;;;;;11.07;61.23;101096.41;5006945;28;20552;-49
2023/06/04 00:32:54;;;;;;;12.40;1.73;;;;;;;11.05;61.79;101094.63;5011051;28;20141;-49
2023/06/04 00:35:23;;;;;;;7.28;1.75;;;;;;;11.07;62.23;101101.59;5001377;28;20069;-52
2023/06/04 00:37:51;;;;;;;5.45;1.58;;;;;;;11.07;61.92;101091.22;5013731;28;20053;-52
2023/06/04 00:40:19;;;;;;;10.07;1.80;;;;;;;11.07;62.22;101097.25;5013154;28;20050;-50
2023/06/04 00:42:49;;;;;;;6.10;1.60;;;;;;;11.07;62.34;101096.41;5009107;28;20152;-50
2023/06/04 00:45:20;;;;;;;4.45;1.38;;;;;;;11.07;62.85;101101.59;5008694;28;20537;-48
2023/06/04 00:47:49;;;;;;;7.45;2.13;;;;;;;11.09;61.69;101092.09;5014315;28;20053;-50
2023/06/04 00:50:20;;;;;;;4.40;2.40;;;;;;;11.11;62.31;101093.84;5006428;28;20050;-51
2023/06/04 00:52:50;;;;;;;5.10;1.45;;;;;;;11.12;62.33;101090.44;5018765;28;20061;-48
2023/06/04 00:55:19;;;;;;;6.25;1.92;;;;;;;11.14;62.63;101087.81;5010963;28;21018;-49
2023/06/04 00:57:46;;;;;;;7.50;1.88;;;;;;;11.15;62.74;101089.59;5003361;28;20045;-48
2023/06/04 01:00:14;;;;;;;5.22;1.70;;;;;;;11.15;62.14;101092.19;5005922;28;20050;-52
2023/06/04 01:02:41;;;;;;;7.15;2.33;;;;;;;11.19;61.82;101091.34;5010667;28;20192;-48
2023/06/04 01:07:53;;;;;;;8.38;1.60;;;;;;;11.15;62.56;101097.38;5036101;27;20394;-49
2023/06/04 01:10:20;;;;;;;7.93;1.83;;;;;;;11.13;63.10;101099.06;5022436;28;20119;-46
2023/06/04 01:12:46;;;;;;;8.13;1.73;;;;;;;11.10;62.54;101093.81;5022406;28;20041;-48
2023/06/04 01:15:13;;;;;;;5.82;1.33;;;;;;;11.08;63.06;101096.41;5023657;28;20049;-49
2023/06/04 01:17:43;;;;;;;7.00;1.63;;;;;;;11.07;62.31;101086.03;5022877;28;20037;-48
2023/06/04 01:20:46;;;;;;;9.35;1.65;;;;;;;10.99;63.09;101089.41;5018639;28;20048;-49
2023/06/04 01:23:27;;;;;;;7.78;1.83;;;;;;;10.98;62.61;101098.00;5044882;28;20050;-46
2023/06/04 01:25:54;;;;;;;5.90;1.77;;;;;;;10.96;62.56;101094.53;5053345;28;20432;-47
2023/06/04 01:28:21;;;;;;;12.27;2.53;;;;;;;10.93;62.36;101094.50;5016257;28;20100;-49
2023/06/04 01:30:48;;;;;;;9.05;1.73;;;;;;;10.92;63.54;101103.97;5019480;28;20056;-50
2023/06/04 01:33:18;;;;;;;7.00;1.85;;;;;;;10.91;62.32;101099.66;5020488;28;20099;-49
2023/06/04 01:35:45;;;;;;;7.70;1.92;;;;;;;10.93;63.34;101102.28;5019764;28;20053;-51
2023/06/04 01:38:11;;;;;;;5.85;2.28;;;;;;;10.94;63.60;101101.41;5015250;28;20045;-48
2023/06/04 01:40:38;;;;;;;11.68;2.00;;;;;;;10.93;62.96;101102.28;5044781;28;20049;-48
2023/06/04 01:43:05;;;;;;;4.43;1.45;;;;;;;10.91;63.74;101096.22;5016468;28;20422;-47
2023/06/04 01:45:32;;;;;;;9.95;2.30;;;;;;;10.89;63.03;101096.19;5017731;28;20041;-46
2023/06/04 01:48:01;;;;;;;5.80;2.33;;;;;;;10.89;62.97;101103.09;5017376;28;20084;-47
2023/06/04 01:50:28;;;;;;;9.60;2.15;;;;;;;10.89;63.44;101103.09;5040269;28;20476;-49
2023/06/04 01:52:55;;;;;;;10.18;2.03;;;;;;;10.88;63.01;101098.75;5037207;28;20052;-48
2023/06/04 01:55:22;;;;;;;5.80;2.85;;;;;;;10.90;62.63;101104.81;5038822;28;20052;-53
2023/06/04 01:57:48;;;;;;;6.80;2.25;;;;;;;10.91;63.46;101101.41;5041666;28;20056;-50
2023/06/04 02:00:15;;;;;;;6.10;1.50;;;;;;;10.92;63.03;101108.31;5041806;28;20049;-48
2023/06/04 02:02:45;;;;;;;3.70;1.65;;;;;;;10.92;63.07;101105.72;5042120;28;20049;-50
2023/06/04 02:05:12;;;;;;;9.70;2.15;;;;;;;10.91;63.80;101102.25;5036978;28;20045;-50
2023/06/04 02:07:40;;;;;;;7.68;2.03;;;;;;;10.95;63.98;101104.88;5040918;28;20038;-46
2023/06/04 02:10:09;;;;;;;10.02;1.90;;;;;;;10.99;63.55;101110.13;5041900;28;20048;-48
2023/06/04 02:12:38;;;;;;;6.32;1.90;;;;;;;11.03;63.35;101109.31;5041446;28;20045;-48
2023/06/04 02:15:06;;;;;;;8.10;2.35;;;;;;;11.04;63.41;101102.41;5042330;28;20053;-50
2023/06/04 02:17:42;;;;;;;8.00;1.75;;;;;;;11.08;62.86;101108.50;5020826;28;20076;-50
2023/06/04 02:20:09;;;;;;;6.80;2.30;;;;;;;11.10;63.37;101104.19;5024760;28;20137;-47
2023/06/04 02:22:37;;;;;;;6.05;2.30;;;;;;;11.09;63.62;101108.53;5025479;28;20045;-47
2023/06/04 02:25:05;;;;;;;12.10;2.03;;;;;;;11.11;63.65;101103.38;5026687;28;20079;-51
2023/06/04 02:27:32;;;;;;;11.57;2.13;;;;;;;11.10;63.83;101112.84;5027833;28;20053;-47
2023/06/04 02:29:58;;;;;;;6.95;1.90;;;;;;;11.12;64.01;101115.47;5027156;28;20049;-48
2023/06/04 02:32:25;;;;;;;5.57;2.03;;;;;;;11.11;63.10;101113.75;5028246;28;20481;-48
2023/06/04 02:34:52;;;;;;;5.47;1.60;;;;;;;11.10;64.03;101111.97;5024866;28;20049;-46
2023/06/04 02:37:18;;;;;;;5.50;1.60;;;;;;;11.08;64.29;101108.50;5028641;28;20103;-45
2023/06/04 02:39:45;;;;;;;7.47;2.25;;;;;;;11.05;63.37;101109.34;5025605;28;20053;-47
2023/06/04 02:42:11;;;;;;;8.10;2.33;;;;;;;11.05;64.40;101104.16;5026312;28;20064;-50
2023/06/04 02:44:38;;;;;;;10.32;2.65;;;;;;;11.04;64.02;101098.09;5021491;28;20048;-50
2023/06/04 02:47:05;;;;;;;7.63;1.85;;;;;;;11.04;63.51;101113.66;5027052;28;20124;-49
2023/06/04 02:49:32;;;;;;;7.18;1.65;;;;;;;11.05;63.54;101098.97;5028043;28;20056;-48
2023/06/04 02:51:58;;;;;;;7.88;1.85;;;;;;;11.08;63.64;101103.31;5022667;28;20049;-48
2023/06/04 02:54:25;;;;;;;9.13;1.90;;;;;;;11.08;64.23;101100.72;5028141;28;20119;-47
2023/06/04 02:56:53;;;;;;;5.57;2.50;;;;;;;11.06;64.50;101100.72;5027830;28;20045;-46
2023/06/04 02:59:20;;;;;;;4.85;1.15;;;;;;;11.05;64.40;101104.16;5028199;28;20603;-48
2023/06/04 03:01:48;;;;;;;6.40;2.08;;;;;;;11.03;63.45;101101.53;5026063;28;20053;-47
2023/06/04 03:04:15;;;;;;;8.93;2.20;;;;;;;10.98;63.99;101092.81;5025266;28;20649;-49
2023/06/04 03:06:46;;;;;;;5.55;1.67;;;;;;;10.98;63.28;101098.00;5027236;28;20053;-47
2023/06/04 03:09:13;;;;;;;4.70;1.58;;;;;;;10.96;63.62;101097.13;5027763;28;20128;-51
2023/06/04 03:11:39;;;;;;;9.30;2.00;;;;;;;10.93;64.69;101094.50;5024949;28;20056;-49
2023/06/04 03:14:06;;;;;;;4.85;2.08;;;;;;;10.89;64.10;101092.72;5027123;28;20152;-47
2023/06/04 03:16:33;;;;;;;8.85;2.20;;;;;;;10.85;63.65;101090.94;5027404;28;20752;-50
2023/06/04 03:18:59;;;;;;;5.07;1.73;;;;;;;10.79;64.67;101087.44;5025912;28;20057;-52
2023/06/04 03:21:28;;;;;;;4.55;1.67;;;;;;;10.73;63.85;101089.94;5026336;28;20158;-49
2023/06/04 03:23:55;;;;;;;5.13;2.30;;;;;;;10.70;64.46;101094.22;5017333;28;20049;-48
2023/06/04 03:26:22;;;;;;;6.38;2.03;;;;;;;10.64;64.66;101092.41;5022289;28;20132;-47
2023/06/04 03:28:50;;;;;;;4.05;1.70;;;;;;;10.60;64.30;101090.63;5026846;28;20140;-50
2023/06/04 03:31:16;;;;;;;6.25;2.08;;;;;;;10.56;64.43;101092.28;5025770;28;20053;-48
2023/06/04 03:33:43;;;;;;;3.53;1.40;;;;;;;10.50;63.67;101090.47;5025407;28;20045;-49
2023/06/04 03:36:10;;;;;;;4.57;2.22;;;;;;;10.44;63.69;101087.78;5025791;28;20052;-46
2023/06/04 03:38:36;;;;;;;4.05;1.95;;;;;;;10.38;64.17;101080.78;5018990;28;20052;-47
2023/06/04 03:41:03;;;;;;;4.50;1.85;;;;;;;10.37;63.97;101085.94;5026335;28;20424;-49
2023/06/04 03:43:30;;;;;;;10.18;1.60;;;;;;;10.33;64.55;101086.75;5026208;28;20053;-45
2023/06/04 03:45:57;;;;;;;5.95;2.03;;;;;;;10.29;64.27;101091.88;5023026;28;20049;-50
2023/06/04 03:48:23;;;;;;;3.33;1.77;;;;;;;10.23;64.17;101088.34;5022355;28;20056;-47
2023/06/04 03:50:50;;;;;;;7.25;2.72;;;;;;;10.19;64.08;101084.81;5021749;28;20061;-49
2023/06/04 03:53:17;;;;;;;8.85;2.58;;;;;;;10.15;64.34;101090.78;5026460;28;20062;-46
2023/06/04 03:55:43;;;;;;;6.60;2.00;;;;;;;10.11;63.88;101086.41;5018670;28;20056;-47
2023/06/04 03:58:11;;;;;;;8.52;2.35;;;;;;;10.09;63.85;101093.25;5025785;28;20052;-47
2023/06/04 04:00:37;;;;;;;5.03;1.80;;;;;;;10.05;64.25;101088.88;5017163;28;20045;-46
2023/06/04 04:03:04;;;;;;;6.40;1.83;;;;;;;10.05;64.43;101096.66;5018540;28;20657;-49
2023/06/04 04:05:31;;;;;;;8.07;1.80;;;;;;;10.01;64.24;101086.28;5025807;28;20053;-46
2023/06/04 04:07:58;;;;;;;9.55;1.75;;;;;;;9.98;64.73;101091.41;5026269;28;20045;-47
2023/06/04 04:10:24;;;;;;;9.85;1.67;;;;;;;9.99;64.17;101097.41;5024107;28;20045;-48
2023/06/04 04:12:53;;;;;;;6.93;2.47;;;;;;;9.99;65.07;101098.31;5022261;28;20050;-47
2023/06/04 04:15:20;;;;;;;5.20;2.35;;;;;;;9.99;64.56;101098.31;5024589;28;20135;-47
2023/06/04 04:17:46;;;;;;;4.88;1.73;;;;;;;10.00;64.75;101099.19;5024510;28;20630;-45
2023/06/04 04:20:13;;;;;;;12.70;2.40;;;;;;;9.99;64.87;101098.31;5022029;28;20051;-49
2023/06/04 04:22:41;;;;;;;10.07;2.70;;;;;;;9.98;64.24;101104.34;5022897;28;20545;-47
2023/06/04 04:25:09;;;;;;;11.57;3.28;;;;;;;9.97;64.17;101099.97;5018629;28;20057;-48
2023/06/04 04:27:38;;;;;;;9.00;2.97;;;;;;;9.96;64.48;101102.56;5018193;28;20518;-48
2023/06/04 04:30:06;;;;;;;6.82;3.10;;;;;;;9.94;64.61;101099.97;5024945;28;20045;-47
2023/06/04 04:32:33;;;;;;;11.13;3.35;;;;;;;9.92;64.38;101096.44;5026387;28;20049;-48
2023/06/04 04:35:00;;;;;;;11.63;3.72;;;;;;;9.91;64.65;101099.91;5014042;28;20132;-51
2023/06/04 04:37:27;;;;;;;10.00;3.65;;;;;;;9.89;64.46;101096.41;5015857;28;20037;-46
2023/06/04 04:39:53;;;;;;;9.43;3.35;;;;;;;9.90;64.75;101103.34;5022449;28;20527;-48
2023/06/04 04:42:20;;;;;;;8.50;3.42;;;;;;;9.91;64.51;101105.06;5026184;28;20057;-48
2023/06/04 04:44:48;;;;;;;7.93;3.05;;;;;;;9.93;64.68;101098.19;5026468;28;20136;-47
2023/06/04 04:47:16;;;;;;;11.88;2.67;;;;;;;9.93;65.48;101093.00;5016643;28;20041;-46
2023/06/04 04:49:43;;;;;;;6.93;3.08;;;;;;;9.95;65.23;101095.63;5025715;28;20052;-46
2023/06/04 04:52:09;;;;;;;7.13;2.55;;;;;;;9.98;65.00;101106.03;5012148;28;20072;-46
2023/06/04 04:54:36;;;;;;;8.00;2.78;;;;;;;10.01;64.64;101101.81;5025184;28;20448;-46
2023/06/04 04:57:03;;;;;;;9.70;2.67;;;;;;;10.06;65.09;101103.59;5025763;28;20130;-47
2023/06/04 04:59:39;;;;;;;;;;;;;;;9.94;65.38;101106.84;5026810;28;20095;-46
2023/06/04 05:02:06;;;;;;;4.95;2.10;;;;;;;10.06;65.13;101113.94;5019069;28;19932;-47
2023/06/04 05:04:32;;;;;;;5.22;2.17;;;;;;;10.11;64.79;101102.81;5025266;28;20058;-47
2023/06/04 05:06:59;;;;;;;5.30;1.88;;;;;;;10.18;64.98;101108.97;5026106;28;20045;-51
2023/06/04 05:09:26;;;;;;;7.22;1.80;;;;;;;10.24;65.49;101108.19;5022948;28;20171;-46
2023/06/04 05:11:53;;;;;;;7.25;2.60;;;;;;;10.31;64.33;101104.84;5020383;28;20056;-45
2023/06/04 05:14:19;;;;;;;8.35;3.03;;;;;;;10.40;65.64;101104.09;5019676;28;20549;-47
2023/06/04 05:16:48;;;;;;;8.93;2.45;;;;;;;10.46;65.41;101112.00;5022771;28;20049;-45
2023/06/04 05:19:16;;;;;;;4.93;2.05;;;;;;;10.51;65.30;101104.31;5024725;28;20050;-47
2023/06/04 05:21:44;;;;;;;4.68;2.42;;;;;;;10.57;64.64;101108.72;5020816;28;20052;-49
2023/06/04 05:24:10;;;;;;;5.07;2.42;;;;;;;10.65;65.29;101114.88;5025121;28;20054;-47
2023/06/04 05:26:39;;;;;;;7.05;2.35;;;;;;;10.73;65.45;101113.25;5023631;28;20049;-48
2023/06/04 05:29:06;;;;;;;9.95;2.03;;;;;;;10.84;64.65;101115.13;5024070;28;20056;-47
2023/06/04 05:31:34;;;;;;;5.28;2.25;;;;;;;10.95;64.93;101118.72;5023929;28;20053;-50
2023/06/04 05:34:04;;;;;;;4.38;1.55;;;;;;;11.05;65.52;101115.38;5023919;28;20045;-48
2023/06/04 05:36:31;;;;;;;6.60;2.75;;;;;;;11.16;65.15;101122.44;5025454;28;20053;-46
2023/06/04 05:38:58;;;;;;;6.15;2.30;;;;;;;11.27;65.69;101115.66;5026217;28;20095;-49
2023/06/04 05:41:25;;;;;;;8.95;2.33;;;;;;;11.37;64.79;101120.94;5025199;28;20041;-48
2023/06/04 05:43:52;;;;;;;4.65;1.77;;;;;;;11.52;65.57;101121.09;5025226;28;20053;-45
2023/06/04 05:46:19;;;;;;;7.10;1.85;;;;;;;11.71;66.15;101123.88;5022834;28;20124;-47
2023/06/04 05:48:46;;;;;;;4.13;1.48;;;;;;;11.86;65.28;101130.09;5024710;28;20053;-47
2023/06/04 05:51:13;;;;;;;4.30;2.13;;;;;;;11.99;65.51;101131.94;5022762;28;20049;-45
2023/06/04 05:53:40;;;;;;;3.97;1.80;;;;;;;12.13;65.11;101126.03;5026175;28;20660;-47
2023/06/04 05:56:06;;;;;;;9.88;2.63;;;;;;;12.23;64.54;101130.44;5028453;28;20041;-50
2023/06/04 05:58:34;;;;;;;5.03;1.95;;;;;;;12.37;64.65;101127.06;5026531;28;20049;-47
2023/06/04 06:01:01;;;;;;;5.57;2.58;;;;;;;12.49;63.81;101123.69;5026030;28;20045;-47
2023/06/04 06:03:27;;;;;;;5.00;2.03;;;;;;;12.59;64.81;101128.97;5026112;28;20049;-46
2023/06/04 06:05:56;;;;;;;3.75;1.55;;;;;;;12.64;63.27;101126.41;5027885;28;20047;-46
2023/06/04 06:08:23;;;;;;;5.22;2.05;;;;;;;12.69;63.92;101127.28;5027057;28;20045;-49
2023/06/04 06:10:50;;;;;;;4.70;1.85;;;;;;;12.67;64.05;101130.75;5028655;28;20042;-48
2023/06/04 06:13:17;;;;;;;4.47;2.30;;;;;;;12.67;63.39;101133.34;5027364;28;20504;-46
2023/06/04 06:15:45;;;;;;;6.85;1.60;;;;;;;12.66;64.18;101134.22;5028453;28;20064;-49
2023/06/04 06:18:13;;;;;;;5.15;1.85;;;;;;;12.59;63.85;101136.75;5025034;28;20037;-48
2023/06/04 06:20:41;;;;;;;6.70;2.08;;;;;;;12.62;64.48;101137.63;5023744;28;20107;-47
2023/06/04 06:23:08;;;;;;;6.18;2.35;;;;;;;12.67;64.22;101135.94;5028137;28;20149;-46
2023/06/04 06:25:34;;;;;;;5.45;1.95;;;;;;;12.72;64.43;101135.09;5027140;28;20461;-45
2023/06/04 06:28:01;;;;;;;8.23;1.85;;;;;;;12.80;64.93;101140.34;5019933;28;20568;-47
2023/06/04 06:30:27;;;;;;;4.13;1.88;;;;;;;12.93;64.81;101135.19;5011262;28;20053;-48
2023/06/04 06:32:54;;;;;;;6.65;2.20;;;;;;;13.02;63.85;101127.44;5020599;28;20042;-46
2023/06/04 06:35:22;;;;;;;7.78;2.25;;;;;;;13.11;63.84;101137.88;5021786;28;20046;-48
2023/06/04 06:37:48;;;;;;;5.20;1.95;;;;;;;13.23;63.63;101131.00;5022475;28;20033;-49
2023/06/04 06:40:15;;;;;;;6.70;2.83;;;;;;;13.29;64.11;101135.34;5027935;28;20041;-51
2023/06/04 06:42:42;;;;;;;6.28;2.05;;;;;;;13.34;64.19;101129.28;5018999;28;20054;-51
2023/06/04 06:45:09;;;;;;;4.53;1.60;;;;;;;13.51;63.67;101131.09;5018913;28;20041;-48
2023/06/04 06:47:35;;;;;;;4.07;1.40;;;;;;;13.68;62.52;101132.91;5024128;28;20046;-49
2023/06/04 06:50:02;;;;;;;2.78;1.42;;;;;;;13.77;62.59;101138.09;5016439;28;20078;-50
2023/06/04 06:52:29;;;;;;;3.42;1.58;;;;;;;13.81;62.72;101131.19;5019620;28;20520;-48
2023/06/04 06:54:59;;;;;;;4.38;2.00;;;;;;;13.85;61.82;101136.38;5024649;28;20124;-48
2023/06/04 06:57:26;;;;;;;3.22;1.55;;;;;;;13.83;62.69;101130.31;5023073;28;20128;-49
2023/06/04 06:59:54;;;;;;;2.28;1.30;;;;;;;13.86;62.32;101132.91;5024343;28;20049;-48
2023/06/04 07:02:20;;;;;;;4.97;2.28;;;;;;;13.80;61.38;101130.31;5013243;28;20056;-52
2023/06/04 07:04:48;;;;;;;3.30;1.45;;;;;;;13.81;62.00;101134.63;5020775;28;20057;-47
2023/06/04 07:07:15;;;;;;;4.45;1.95;;;;;;;13.90;61.48;101143.31;5021211;28;20108;-48
2023/06/04 07:09:44;;;;;;;5.47;2.20;;;;;;;13.93;61.43;101141.59;5019004;28;20088;-49
2023/06/04 07:12:10;;;;;;;4.18;1.23;;;;;;;13.94;61.25;101145.06;5024809;28;20704;-50
2023/06/04 07:14:37;;;;;;;7.63;2.05;;;;;;;13.96;60.89;101148.53;5022996;28;20053;-48
2023/06/04 07:17:04;;;;;;;3.90;1.50;;;;;;;14.01;61.08;101147.69;5026258;28;20053;-49
2023/06/04 07:19:30;;;;;;;5.35;1.70;;;;;;;14.09;60.54;101149.44;5015209;28;20456;-46
2023/06/04 07:21:57;;;;;;;4.22;1.67;;;;;;;14.12;60.48;101155.50;5024166;28;20049;-47
2023/06/04 07:24:24;;;;;;;4.60;1.55;;;;;;;14.12;59.52;101165.91;5021187;28;20056;-47
2023/06/04 07:26:50;;;;;;;5.20;2.65;;;;;;;14.17;59.84;101160.72;5017414;28;20437;-47
2023/06/04 07:29:17;;;;;;;5.07;1.70;;;;;;;14.41;59.89;101161.56;5025156;28;20048;-49
2023/06/04 07:31:44;;;;;;;4.13;1.60;;;;;;;14.52;59.05;101165.03;5018251;28;20112;-48
2023/06/04 07:34:11;;;;;;;8.43;2.35;;;;;;;14.50;59.49;101171.13;5013460;28;20092;-47
2023/06/04 07:36:38;;;;;;;3.38;1.15;;;;;;;14.51;58.71;101167.63;5015692;28;20052;-47
2023/06/04 07:39:04;;;;;;;3.33;1.73;;;;;;;14.46;58.62;101169.41;5019635;28;20675;-51
2023/06/04 07:41:31;;;;;;;2.22;1.23;;;;;;;14.46;58.21;101175.44;5023282;28;20490;-47
2023/06/04 07:43:58;;;;;;;3.38;1.70;;;;;;;14.48;58.19;101172.84;5017446;28;20382;-50
2023/06/04 07:46:24;;;;;;;3.65;1.90;;;;;;;14.53;58.66;101160.69;5020568;28;20046;-49
2023/06/04 07:48:51;;;;;;;3.25;1.05;;;;;;;14.50;58.20;101161.56;5015308;28;20056;-45
2023/06/04 07:51:19;;;;;;;2.58;1.65;;;;;;;14.48;58.50;101162.41;5014021;28;20046;-48
2023/06/04 07:53:46;;;;;;;4.20;1.35;;;;;;;14.55;58.60;101158.94;5017725;28;20287;-49
2023/06/04 07:56:12;;;;;;;3.10;1.48;;;;;;;14.62;58.65;101168.50;5015373;28;20053;-49
2023/06/04 07:58:40;;;;;;;3.80;1.27;;;;;;;14.70;57.84;101157.19;5022141;28;20050;-47
2023/06/04 08:01:07;;;;;;;2.33;1.60;;;;;;;14.76;57.66;101167.63;5022203;28;20486;-50
2023/06/04 08:03:34;;;;;;;2.47;1.23;;;;;;;14.79;57.87;101162.41;5020749;28;20047;-48
2023/06/04 08:06:01;;;;;;;2.15;1.92;;;;;;;14.93;58.10;101158.91;5019866;28;20055;-50
2023/06/04 08:08:30;;;;;;;3.08;1.30;;;;;;;15.27;57.98;101159.63;5020929;28;20055;-49
2023/06/04 08:10:58;;;;;;;5.55;1.50;;;;;;;15.69;57.71;101155.94;5026747;28;20584;-49
2023/06/04 08:13:24;;;;;;;4.43;1.60;;;;;;;16.00;57.62;101155.75;5026920;28;20236;-49
2023/06/04 08:15:51;;;;;;;2.40;1.35;;;;;;;16.20;56.91;101157.34;5017711;28;20053;-51
2023/06/04 08:18:18;;;;;;;2.92;1.38;;;;;;;16.23;56.48;101159.06;5020515;28;20041;-52
2023/06/04 08:20:44;;;;;;;3.25;1.63;;;;;;;16.30;56.35;101159.00;5021846;28;20049;-47
2023/06/04 08:23:11;;;;;;;3.83;1.55;;;;;;;16.39;55.66;101152.81;5026737;28;20050;-52
2023/06/04 08:25:38;;;;;;;3.42;1.33;;;;;;;16.38;55.13;101156.31;5026549;28;20057;-52
2023/06/04 08:28:04;;;;;;;3.08;1.00;;;;;;;16.33;55.04;101147.66;5025546;28;20077;-51
2023/06/04 08:30:31;;;;;;;4.70;1.38;;;;;;;16.36;54.95;101152.84;5020934;28;20750;-47
2023/06/04 08:32:58;;;;;;;3.72;1.40;;;;;;;16.61;55.34;101152.59;5021434;28;20049;-48
2023/06/04 08:35:25;;;;;;;3.75;1.85;;;;;;;16.93;55.32;101148.75;5025676;28;20626;-49
2023/06/04 08:37:51;;;;;;;3.97;1.17;;;;;;;17.27;54.85;101146.66;5010702;28;20042;-49
2023/06/04 08:40:18;;;;;;;3.17;1.30;;;;;;;17.54;54.39;101155.03;5006360;28;20053;-46
2023/06/04 08:42:45;;;;;;;3.90;1.20;;;;;;;17.91;54.43;101154.47;5006287;28;20080;-51
2023/06/04 08:45:13;;;;;;;2.97;1.50;;;;;;;18.18;53.55;101157.56;5004900;28;20050;-49
2023/06/04 08:47:45;;;;;;;3.08;1.48;;;;;;;18.50;53.23;101163.13;5005714;28;20069;-48
2023/06/04 08:50:13;;;;;;;2.22;1.23;;;;;;;18.81;53.42;101156.47;5000714;28;20048;-52
2023/06/04 08:52:40;;;;;;;2.20;1.38;;;;;;;19.06;51.78;101163.84;5001683;28;20053;-52
2023/06/04 08:55:11;;;;;;;2.22;1.20;;;;;;;19.26;51.05;101155.56;5005511;28;20056;-51
2023/06/04 08:57:39;;;;;;;2.20;1.48;;;;;;;19.42;50.31;101158.72;5000786;28;20049;-47
2023/06/04 09:00:08;;;;;;;5.00;1.25;;;;;;;19.59;50.12;101160.13;5005882;28;20053;-49
2023/06/04 09:02:37;;;;;;;5.47;1.95;;;;;;;19.75;49.68;101150.09;4987587;28;20533;-52
2023/06/04 09:05:06;;;;;;;3.08;1.13;;;;;;;19.74;49.31;101154.50;5002687;28;20049;-51
2023/06/04 09:07:36;;;;;;;3.78;1.58;;;;;;;19.76;49.74;101150.06;5005038;28;20046;-49
2023/06/04 09:10:06;;;;;;;1.95;1.40;;;;;;;19.88;49.60;101158.56;5005900;28;20046;-50
2023/06/04 09:12:43;;;;;;;2.05;1.25;;;;;;;19.78;48.53;101150.91;5005078;28;20045;-48
2023/06/04 09:15:11;;;;;;;2.85;1.65;;;;;;;19.70;49.02;101155.47;5005057;28;20050;-49
2023/06/04 09:17:37;;;;;;;2.30;1.50;;;;;;;19.69;48.80;101158.97;5003368;28;20096;-49
2023/06/04 09:20:08;;;;;;;4.78;1.38;;;;;;;19.75;48.78;101161.47;5004022;28;20046;-51
2023/06/04 09:22:36;;;;;;;2.88;1.52;;;;;;;19.83;48.91;101153.44;4996402;28;20042;-48
2023/06/04 09:25:07;;;;;;;1.63;1.10;;;;;;;19.94;49.12;101153.16;5005920;28;20046;-55
2023/06/04 09:27:39;;;;;;;5.28;1.90;;;;;;;19.93;48.57;101153.19;4989183;28;20049;-54
2023/06/04 09:30:09;;;;;;;3.63;1.60;;;;;;;19.95;48.85;101141.75;5004389;28;20050;-51
2023/06/04 09:32:35;;;;;;;;;;;;;;;20.01;48.19;101139.00;5006792;28;20050;-47
2023/06/04 09:35:19;;;;;;;2.47;1.90;;;;;;;20.03;47.75;101150.31;5006818;28;19945;-52
2023/06/04 09:38:02;;;;;;;2.20;1.65;;;;;;;20.08;48.36;101157.22;5006577;28;20049;-48
2023/06/04 09:40:37;;;;;;;2.58;2.08;;;;;;;20.14;47.67;101149.19;5009823;28;20046;-52
2023/06/04 09:43:05;;;;;;;3.67;1.85;;;;;;;20.23;47.62;101156.84;5009141;28;20050;-54
2023/06/04 09:45:35;;;;;;;2.80;1.42;;;;;;;20.40;47.78;101147.69;5007209;28;20049;-51
2023/06/04 09:48:04;;;;;;;3.85;2.15;;;;;;;20.63;47.42;101154.06;5006546;28;20053;-51
2023/06/04 09:50:38;;;;;;;3.70;1.30;;;;;;;20.75;47.61;101153.75;5006632;28;20490;-48
2023/06/04 09:53:15;;;;;;;4.60;1.98;;;;;;;20.91;47.12;101158.59;5004623;28;20498;-48
2023/06/04 09:55:42;;;;;;;2.85;1.30;;;;;;;21.04;46.52;101149.44;5005868;28;20092;-50
2023/06/04 09:58:12;;;;;;;2.95;1.52;;;;;;;21.14;46.17;101154.44;4995735;28;20042;-51
2023/06/04 10:00:41;;;;;;;3.63;1.50;;;;;;;21.16;46.15;101157.88;5008124;28;20578;-53
2023/06/04 10:03:15;;;;;;;2.35;1.92;;;;;;;21.21;46.30;101152.50;5005954;28;20132;-51
2023/06/04 10:05:41;;;;;;;3.63;1.70;;;;;;;21.23;45.82;101153.28;5005846;28;20058;-52
2023/06/04 10:08:11;;;;;;;4.18;2.70;;;;;;;21.41;46.21;101154.53;5007250;28;20096;-49
2023/06/04 10:10:38;;;;;;;3.97;1.67;;;;;;;21.50;46.13;101154.22;5005109;28;20628;-53
2023/06/04 10:13:09;;;;;;;3.17;1.90;;;;;;;21.60;45.92;101156.56;5003170;28;20053;-52
2023/06/04 10:15:37;;;;;;;2.97;1.50;;;;;;;21.70;45.76;101152.75;5007059;28;20053;-49
2023/06/04 10:18:05;;;;;;;5.30;1.73;;;;;;;21.83;45.50;101151.47;5006666;28;20506;-53
2023/06/04 10:20:33;;;;;;;2.58;1.60;;;;;;;21.94;45.50;101155.53;5001345;28;20049;-53
2023/06/04 10:23:00;;;;;;;4.32;1.85;;;;;;;22.00;45.34;101155.31;5000024;28;20061;-52
2023/06/04 10:25:27;;;;;;;3.67;2.00;;;;;;;22.12;45.84;101163.75;5000093;28;20504;-51
2023/06/04 10:27:55;;;;;;;3.22;1.40;;;;;;;22.22;44.66;101159.88;5007375;28;20053;-54
2023/06/04 10:30:22;;;;;;;3.58;2.00;;;;;;;22.18;44.35;101168.81;5005409;28;20053;-51
2023/06/04 10:32:50;;;;;;;2.78;2.13;;;;;;;22.09;44.80;101175.28;5003088;28;20116;-49
2023/06/04 10:35:16;;;;;;;5.20;1.90;;;;;;;22.09;44.87;101170.00;5008182;28;20056;-51
2023/06/04 10:37:43;;;;;;;4.35;2.15;;;;;;;22.19;44.32;101176.66;5006318;28;20053;-51
2023/06/04 10:40:10;;;;;;;2.38;1.52;;;;;;;22.33;44.12;101173.56;5006640;28;20042;-51
2023/06/04 10:42:40;;;;;;;4.72;2.08;;;;;;;22.51;44.05;101175.59;5003186;28;20053;-52
2023/06/04 10:45:07;;;;;;;3.40;1.70;;;;;;;22.55;43.28;101183.38;4999509;28;20061;-52
2023/06/04 10:47:37;;;;;;;2.60;1.88;;;;;;;22.58;43.33;101178.03;5008205;28;20052;-51
2023/06/04 10:50:13;;;;;;;3.65;2.10;;;;;;;22.62;43.38;101189.34;4999755;28;20126;-53
2023/06/04 10:52:58;;;;;;;3.30;1.80;;;;;;;22.45;43.12;101179.31;5003336;28;20053;-53
2023/06/04 10:55:25;;;;;;;3.05;1.25;;;;;;;22.45;43.16;101177.56;5000718;28;20137;-52
2023/06/04 10:57:55;;;;;;;1.92;1.33;;;;;;;22.43;42.80;101179.38;5007371;28;20050;-53
2023/06/04 11:00:34;;;;;;;3.00;1.88;;;;;;;22.46;43.36;101174.00;5003226;28;20133;-54
2023/06/04 11:03:01;;;;;;;2.30;1.42;;;;;;;22.55;43.59;101174.59;4997043;28;20046;-53
2023/06/04 11:05:45;;;;;;;2.40;1.60;;;;;;;22.55;43.06;101175.47;5027705;28;20055;-52
2023/06/04 11:08:14;;;;;;;3.45;1.60;;;;;;;22.58;43.45;101170.09;5016528;28;20041;-51
2023/06/04 11:10:43;;;;;;;3.05;1.52;;;;;;;22.57;43.46;101171.03;5009265;28;20081;-49
2023/06/04 11:13:10;;;;;;;3.13;1.50;;;;;;;22.52;42.99;101172.91;5019124;28;20064;-54
2023/06/04 11:18:19;;;;;;;2.75;1.42;;;;;;;22.63;44.08;101169.06;5074872;27;20378;-52
2023/06/04 11:20:48;;;;;;;3.70;1.50;;;;;;;22.71;43.26;101167.91;5030750;28;20050;-48
2023/06/04 11:23:16;;;;;;;6.97;2.72;;;;;;;22.65;42.96;101172.50;5012687;28;20045;-52
2023/06/04 11:25:43;;;;;;;2.75;1.52;;;;;;;22.63;43.36;101177.00;5019273;28;20046;-51
2023/06/04 11:28:21;;;;;;;6.35;4.13;;;;;;;22.51;42.26;101176.47;5024194;28;20624;-51
2023/06/04 11:30:57;;;;;;;4.70;2.28;;;;;;;22.43;42.47;101167.97;5067011;28;20053;-54
2023/06/04 11:33:24;;;;;;;3.50;1.85;;;;;;;22.44;42.82;101167.06;5034225;28;20049;-52
2023/06/04 11:35:51;;;;;;;23.98;7.43;;;;;;;22.51;43.99;101176.47;5038435;28;20049;-50